createdAt,value
2022-10-11T00:04:50.670Z,102026.56
2022-10-11T00:15:19.232Z,102044.81
2022-10-11T00:25:40.869Z,102054.13
2022-10-11T00:36:03.429Z,102054.41
2022-10-11T00:46:28.575Z,102071.78
2022-10-11T00:56:54.271Z,102067.91
2022-10-11T01:07:18.733Z,102076.19
2022-10-11T01:17:59.222Z,102088.56
2022-10-11T01:28:56.722Z,102083.94
2022-10-11T01:39:30.104Z,102091.06
2022-10-11T01:50:00.447Z,102100.47
2022-10-11T02:00:39.355Z,102104.56
2022-10-11T02:11:06.206Z,102114.44
2022-10-11T02:21:29.711Z,102114.44
2022-10-11T02:31:52.486Z,102124.66
2022-10-11T02:42:19.145Z,102136.19
2022-10-11T02:52:40.632Z,102138.53
2022-10-11T03:03:02.082Z,102143.47
2022-10-11T03:13:23.875Z,102159.41
2022-10-11T03:23:45.383Z,102162.91
2022-10-11T03:34:06.862Z,102169.22
2022-10-11T03:44:28.344Z,102171.69
2022-10-11T03:54:49.818Z,102183.31
2022-10-11T04:05:12.659Z,102188.69
2022-10-11T04:15:34.230Z,102201.97
2022-10-11T04:25:55.672Z,102216.28
2022-10-11T04:36:17.323Z,102231.66
2022-10-11T04:46:38.821Z,102234.19
2022-10-11T04:57:00.323Z,102253.50
2022-10-11T05:07:21.905Z,102255.19
2022-10-11T05:17:43.374Z,102271.97
2022-10-11T05:28:04.986Z,102271.97
2022-10-11T05:38:26.991Z,102295.78
2022-10-11T05:48:48.372Z,102295.31
2022-10-11T05:59:09.845Z,102316.31
2022-10-11T06:09:31.489Z,102317.91
2022-10-11T06:19:52.963Z,102328.81
2022-10-11T06:30:14.738Z,102335.72
2022-10-11T06:40:36.582Z,102340.78
2022-10-11T06:51:00.515Z,102355.69
2022-10-11T07:01:23.844Z,102366.88
2022-10-11T07:11:47.173Z,102379.06
2022-10-11T07:22:08.712Z,102396.00
2022-10-11T07:32:30.809Z,102403.34
2022-10-11T07:42:52.230Z,102409.78
2022-10-11T07:53:13.809Z,102413.78
2022-10-11T08:03:35.394Z,102407.56
2022-10-11T08:13:57.700Z,102413.53
2022-10-11T08:24:20.985Z,102420.94
2022-10-11T08:34:42.525Z,102428.47
2022-10-11T08:45:11.568Z,102429.13
2022-10-11T08:55:44.083Z,102443.47
2022-10-11T09:06:20.078Z,102444.63
2022-10-11T09:17:10.922Z,102456.94
2022-10-11T09:28:01.310Z,102459.84
2022-10-11T09:38:40.464Z,102456.50
2022-10-11T09:49:07.817Z,102466.00
2022-10-11T09:59:35.854Z,102465.56
2022-10-11T10:09:57.748Z,102469.03
2022-10-11T10:20:22.927Z,102473.38
2022-10-11T10:30:56.745Z,102478.78
2022-10-11T10:41:19.021Z,102481.41
2022-10-11T10:51:52.955Z,102465.97
2022-10-11T11:02:39.596Z,102469.25
2022-10-11T11:13:19.053Z,102475.16
2022-10-11T11:23:56.766Z,102477.34
2022-10-11T11:34:24.064Z,102466.44
2022-10-11T11:44:50.639Z,102464.63
2022-10-11T11:55:44.911Z,102456.44
2022-10-11T12:06:12.640Z,102454.13
2022-10-11T12:16:34.172Z,102436.44
2022-10-11T12:26:57.969Z,102436.97
2022-10-11T12:37:19.656Z,102434.41
2022-10-11T12:47:56.473Z,102430.91
2022-10-11T12:58:24.261Z,102434.34
2022-10-11T13:08:52.545Z,102428.63
2022-10-11T13:19:15.607Z,102425.28
2022-10-11T13:29:41.490Z,102424.88
2022-10-11T13:40:03.289Z,102426.19
2022-10-11T13:50:32.082Z,102421.19
2022-10-11T14:01:00.648Z,102423.78
2022-10-11T14:11:37.724Z,102422.19
2022-10-11T14:21:59.198Z,102418.41
2022-10-11T14:32:29.705Z,102420.75
2022-10-11T14:42:51.753Z,102433.66
2022-10-11T14:53:14.092Z,102427.81
2022-10-11T15:03:35.611Z,102440.03
2022-10-11T15:13:57.122Z,102430.63
2022-10-11T15:24:22.189Z,102434.69
2022-10-11T15:34:44.192Z,102431.28
2022-10-11T15:45:05.889Z,102431.81
2022-10-11T15:55:27.368Z,102419.50
2022-10-11T16:05:49.077Z,102416.75
2022-10-11T16:16:11.503Z,102419.78
2022-10-11T16:26:33.066Z,102416.69
2022-10-11T16:36:54.421Z,102418.34
2022-10-11T16:47:16.692Z,102417.72
2022-10-11T16:57:38.638Z,102427.53
2022-10-11T17:08:00.162Z,102428.78
2022-10-11T17:18:21.621Z,102427.13
2022-10-11T17:28:43.313Z,102432.16
2022-10-11T17:39:08.042Z,102427.22
2022-10-11T17:49:30.002Z,102438.69
2022-10-11T17:59:52.588Z,102439.38
2022-10-11T18:10:14.042Z,102432.78
2022-10-11T18:20:35.467Z,102425.91
2022-10-11T18:30:57.813Z,102426.69
2022-10-11T18:41:22.132Z,102429.47
2022-10-11T18:51:45.742Z,102424.56
2022-10-11T19:02:07.179Z,102415.66
2022-10-11T19:12:28.659Z,102419.00
2022-10-11T19:22:50.111Z,102422.69
2022-10-11T19:33:11.580Z,102415.84
2022-10-11T19:43:33.308Z,102413.66
2022-10-11T19:54:05.441Z,102417.19
2022-10-11T20:04:51.115Z,102413.88
2022-10-11T20:15:08.451Z,102414.25
2022-10-11T20:25:29.899Z,102405.78
2022-10-11T20:36:11.140Z,102419.88
2022-10-11T20:46:35.179Z,102406.50
2022-10-11T20:56:57.612Z,102410.66
2022-10-11T21:07:19.121Z,102410.97
2022-10-11T21:17:40.616Z,102412.94
2022-10-11T21:28:02.543Z,102411.72
2022-10-11T21:38:24.291Z,102409.63
2022-10-11T21:48:46.329Z,102421.19
2022-10-11T21:59:11.153Z,102405.63
2022-10-11T22:09:35.055Z,102408.06
2022-10-11T22:19:56.510Z,102403.75
2022-10-11T22:30:18.074Z,102398.22
2022-10-11T22:40:39.911Z,102406.44
2022-10-11T22:51:01.344Z,102417.00
2022-10-11T23:01:22.813Z,102413.84
2022-10-11T23:11:44.281Z,102410.00
2022-10-11T23:22:05.771Z,102408.88
2022-10-11T23:32:27.280Z,102420.16
2022-10-11T23:42:48.724Z,102417.09
2022-10-11T23:53:10.717Z,102415.00
